createdAt,value
2022-10-31T00:00:58.860Z,15.32
2022-10-31T00:06:21.525Z,16.34
2022-10-31T00:11:24.926Z,19.12
2022-10-31T00:16:29.335Z,18.84
2022-10-31T00:21:33.446Z,17.48
2022-10-31T00:26:36.301Z,16.71
2022-10-31T00:31:40.152Z,16.15
2022-10-31T00:36:43.236Z,15.70
2022-10-31T00:41:49.793Z,15.31
2022-10-31T00:46:52.701Z,14.96
2022-10-31T00:51:58.243Z,15.83
2022-10-31T00:57:01.203Z,18.59
2022-10-31T01:02:04.240Z,19.10
2022-10-31T01:07:07.254Z,17.58
2022-10-31T01:12:10.194Z,16.70
2022-10-31T01:17:15.527Z,16.24
2022-10-31T01:22:18.349Z,16.99
2022-10-31T01:27:21.219Z,19.75
2022-10-31T01:32:25.806Z,19.95
2022-10-31T01:37:28.740Z,18.39
2022-10-31T01:42:31.599Z,17.44
2022-10-31T01:47:42.179Z,16.77
2022-10-31T01:52:50.623Z,16.30
2022-10-31T01:57:58.933Z,15.92
2022-10-31T02:03:02.581Z,16.69
2022-10-31T02:08:12.512Z,19.30
2022-10-31T02:13:15.573Z,18.78
2022-10-31T02:18:25.513Z,17.59
2022-10-31T02:23:50.617Z,16.94
2022-10-31T02:29:06.208Z,16.48
2022-10-31T02:34:15.037Z,16.00
2022-10-31T02:39:52.283Z,15.60
2022-10-31T02:45:12.072Z,16.82
2022-10-31T02:50:24.622Z,19.58
2022-10-31T02:55:27.387Z,19.43
2022-10-31T03:00:51.256Z,17.98
2022-10-31T03:06:30.643Z,17.13
2022-10-31T03:11:50.970Z,16.50
2022-10-31T03:16:58.543Z,16.08
2022-10-31T03:22:27.056Z,16.84
2022-10-31T03:27:36.001Z,19.68
2022-10-31T03:32:55.639Z,19.25
2022-10-31T03:38:06.804Z,17.88
2022-10-31T03:48:28.775Z,16.60
2022-10-31T03:53:50.204Z,16.19
2022-10-31T03:59:01.379Z,15.82
2022-10-31T04:04:07.415Z,16.70
2022-10-31T04:09:11.054Z,19.44
2022-10-31T04:14:13.879Z,19.42
2022-10-31T04:19:18.346Z,18.01
2022-10-31T04:24:21.428Z,17.19
2022-10-31T04:29:25.009Z,16.60
2022-10-31T04:34:28.157Z,16.12
2022-10-31T04:39:31.033Z,15.72
2022-10-31T04:44:54.035Z,15.38
2022-10-31T04:49:57.188Z,16.30
2022-10-31T04:55:00.084Z,19.09
2022-10-31T05:00:29.890Z,18.84
2022-10-31T05:05:33.569Z,17.57
2022-10-31T05:10:39.267Z,16.83
2022-10-31T05:15:42.206Z,16.25
2022-10-31T05:21:03.313Z,15.70
2022-10-31T05:26:14.785Z,15.25
2022-10-31T05:31:17.768Z,14.86
2022-10-31T05:36:20.965Z,15.70
2022-10-31T05:41:39.490Z,18.59
2022-10-31T05:46:49.296Z,18.60
2022-10-31T05:52:30.688Z,17.06
2022-10-31T05:57:39.165Z,16.26
2022-10-31T06:02:42.026Z,15.68
2022-10-31T06:08:07.856Z,15.20
2022-10-31T06:13:11.460Z,14.83
2022-10-31T06:18:20.425Z,15.73
2022-10-31T06:23:25.306Z,18.57
2022-10-31T06:28:32.311Z,19.02
2022-10-31T06:33:49.940Z,17.54
2022-10-31T06:38:53.480Z,16.76
2022-10-31T06:43:58.281Z,16.26
2022-10-31T06:49:24.122Z,15.86
2022-10-31T06:54:30.628Z,15.57
2022-10-31T06:59:33.581Z,16.47
2022-10-31T07:04:42.285Z,19.35
2022-10-31T07:09:47.570Z,19.55
2022-10-31T07:14:51.493Z,18.22
2022-10-31T07:19:54.622Z,17.53
2022-10-31T07:24:57.748Z,17.08
2022-10-31T07:30:14.724Z,16.75
2022-10-31T07:35:28.884Z,16.50
2022-10-31T07:40:35.445Z,17.84
2022-10-31T07:45:38.930Z,20.01
2022-10-31T07:51:02.030Z,18.84
2022-10-31T07:56:23.473Z,18.02
2022-10-31T08:01:26.439Z,17.57
2022-10-31T08:06:58.293Z,17.21
2022-10-31T08:12:05.095Z,16.96
2022-10-31T08:17:08.905Z,16.80
2022-10-31T08:22:20.481Z,16.68
2022-10-31T08:27:24.693Z,16.65
2022-10-31T08:32:28.101Z,16.67
2022-10-31T08:38:13.577Z,18.17
2022-10-31T08:43:19.930Z,20.30
2022-10-31T08:48:24.209Z,19.28
2022-10-31T08:53:27.891Z,18.66
2022-10-31T08:58:55.035Z,18.30
2022-10-31T09:04:06.259Z,18.10
2022-10-31T09:09:09.094Z,18.00
2022-10-31T09:14:12.043Z,17.92
2022-10-31T09:19:14.857Z,17.92
2022-10-31T09:24:22.982Z,17.96
2022-10-31T09:29:25.808Z,18.01
2022-10-31T09:34:33.562Z,18.07
2022-10-31T09:39:45.315Z,18.18
2022-10-31T09:45:13.341Z,18.28
2022-10-31T09:50:33.898Z,18.42
2022-10-31T09:55:43.675Z,18.56
2022-10-31T10:00:49.165Z,18.70
2022-10-31T10:05:52.196Z,18.85
2022-10-31T10:11:21.329Z,19.00
2022-10-31T10:17:02.641Z,19.19
2022-10-31T10:22:36.156Z,19.40
2022-10-31T10:27:50.624Z,19.59
2022-10-31T10:32:58.704Z,19.79
2022-10-31T10:38:22.975Z,19.98
2022-10-31T10:43:33.971Z,20.16
2022-10-31T10:48:44.681Z,20.27
2022-10-31T10:54:04.149Z,20.34
2022-10-31T10:59:14.960Z,20.39
2022-10-31T11:04:34.591Z,20.46
2022-10-31T11:09:38.711Z,20.57
2022-10-31T11:14:51.761Z,20.64
2022-10-31T11:20:31.449Z,20.75
2022-10-31T11:25:34.363Z,20.83
2022-10-31T11:30:47.750Z,20.92
2022-10-31T11:35:53.499Z,21.02
2022-10-31T11:41:18.815Z,21.14
2022-10-31T11:46:46.996Z,21.26
2022-10-31T11:51:57.737Z,21.39
2022-10-31T11:57:01.035Z,21.53
2022-10-31T12:02:19.789Z,21.65
2022-10-31T12:07:24.379Z,21.72
2022-10-31T12:12:44.615Z,21.78
2022-10-31T12:18:03.863Z,21.84
2022-10-31T12:23:44.279Z,21.89
2022-10-31T12:29:00.838Z,21.94
2022-10-31T12:34:22.460Z,22.00
2022-10-31T12:39:35.494Z,22.03
2022-10-31T12:44:53.376Z,22.08
2022-10-31T12:50:08.180Z,22.14
2022-10-31T12:55:23.515Z,22.20
2022-10-31T13:00:30.380Z,22.24
2022-10-31T13:05:45.941Z,22.27
2022-10-31T13:11:07.357Z,22.33
2022-10-31T13:16:18.734Z,22.42
2022-10-31T13:21:38.397Z,22.48
2022-10-31T13:26:50.203Z,22.50
2022-10-31T13:31:53.178Z,22.48
2022-10-31T13:36:59.015Z,22.44
2022-10-31T13:42:11.445Z,22.39
2022-10-31T13:47:29.836Z,22.34
2022-10-31T13:52:32.747Z,22.31
2022-10-31T13:57:45.102Z,22.26
2022-10-31T14:02:58.790Z,22.22
2022-10-31T14:08:07.482Z,22.18
2022-10-31T14:13:19.364Z,22.14
2022-10-31T14:18:31.411Z,22.10
2022-10-31T14:23:41.702Z,22.04
2022-10-31T14:28:45.391Z,21.95
2022-10-31T14:33:49.093Z,21.86
2022-10-31T14:38:57.084Z,21.77
2022-10-31T14:44:38.951Z,21.70
2022-10-31T14:50:01.555Z,21.64
2022-10-31T14:55:08.279Z,21.59
2022-10-31T15:00:18.980Z,21.53
2022-10-31T15:05:22.468Z,21.45
2022-10-31T15:10:30.766Z,21.33
2022-10-31T15:15:35.073Z,21.18
2022-10-31T15:20:44.807Z,21.02
2022-10-31T15:25:47.912Z,20.85
2022-10-31T15:30:56.484Z,20.71
2022-10-31T15:36:02.067Z,20.59
2022-10-31T15:41:22.930Z,20.50
2022-10-31T15:46:28.233Z,20.37
2022-10-31T15:51:34.686Z,20.25
2022-10-31T15:56:37.728Z,20.11
2022-10-31T16:01:40.707Z,19.93
2022-10-31T16:06:43.638Z,19.74
2022-10-31T16:11:46.628Z,19.56
2022-10-31T16:16:53.462Z,19.38
2022-10-31T16:22:09.631Z,19.21
2022-10-31T16:27:24.306Z,19.06
2022-10-31T16:32:52.341Z,18.92
2022-10-31T16:37:55.609Z,18.76
2022-10-31T16:43:00.629Z,18.62
2022-10-31T16:48:09.935Z,18.48
2022-10-31T16:53:15.748Z,18.36
2022-10-31T16:58:36.805Z,18.22
2022-10-31T17:03:40.248Z,18.09
2022-10-31T17:08:43.181Z,19.00
2022-10-31T17:13:46.350Z,21.88
2022-10-31T17:18:49.260Z,21.94
2022-10-31T17:23:52.383Z,20.66
2022-10-31T17:28:56.125Z,19.92
2022-10-31T17:34:02.729Z,19.40
2022-10-31T17:39:09.394Z,19.01
2022-10-31T17:44:12.893Z,18.65
2022-10-31T17:49:15.864Z,18.33
2022-10-31T17:54:22.768Z,18.04
2022-10-31T17:59:27.702Z,17.79
2022-10-31T18:04:30.784Z,17.56
2022-10-31T18:09:34.388Z,18.47
2022-10-31T18:14:37.337Z,21.30
2022-10-31T18:19:40.376Z,21.34
2022-10-31T18:24:43.279Z,19.96
2022-10-31T18:29:47.439Z,19.17
2022-10-31T18:34:50.461Z,18.60
2022-10-31T18:39:53.240Z,18.13
2022-10-31T18:44:56.504Z,17.73
2022-10-31T18:50:01.329Z,17.37
2022-10-31T18:55:04.728Z,17.06
2022-10-31T19:00:08.326Z,16.80
2022-10-31T19:05:11.175Z,17.74
2022-10-31T19:10:17.538Z,20.57
2022-10-31T19:15:20.902Z,20.31
2022-10-31T19:20:24.002Z,18.99
2022-10-31T19:25:26.910Z,18.25
2022-10-31T19:30:29.717Z,17.71
2022-10-31T19:35:32.567Z,17.24
2022-10-31T19:40:36.684Z,16.84
2022-10-31T19:45:39.517Z,16.50
2022-10-31T19:50:42.349Z,16.22
2022-10-31T19:55:45.452Z,17.24
2022-10-31T20:00:48.470Z,20.11
2022-10-31T20:05:51.628Z,20.04
2022-10-31T20:11:04.255Z,18.66
2022-10-31T20:16:10.064Z,17.86
2022-10-31T20:21:15.719Z,17.27
2022-10-31T20:26:19.350Z,16.76
2022-10-31T20:31:24.518Z,16.36
2022-10-31T20:36:29.643Z,15.99
2022-10-31T20:41:32.743Z,15.70
2022-10-31T20:46:35.697Z,16.62
2022-10-31T20:51:38.743Z,19.53
2022-10-31T20:56:42.660Z,19.70
2022-10-31T21:01:45.725Z,18.21
2022-10-31T21:06:49.711Z,17.35
2022-10-31T21:11:52.729Z,16.77
2022-10-31T21:16:55.801Z,16.30
2022-10-31T21:21:58.687Z,15.96
2022-10-31T21:27:02.816Z,15.66
2022-10-31T21:32:06.173Z,15.37
2022-10-31T21:37:09.045Z,16.35
2022-10-31T21:42:11.875Z,19.22
2022-10-31T21:47:15.268Z,18.96
2022-10-31T21:52:18.286Z,17.61
2022-10-31T22:02:25.101Z,16.23
2022-10-31T22:07:28.020Z,15.76
2022-10-31T22:12:30.868Z,15.36
2022-10-31T22:17:33.967Z,15.02
2022-10-31T22:22:36.795Z,15.90
2022-10-31T22:27:39.607Z,18.76
2022-10-31T22:32:42.468Z,18.42
2022-10-31T22:37:45.385Z,17.08
2022-10-31T22:42:48.178Z,16.30
2022-10-31T22:47:51.104Z,15.74
2022-10-31T22:52:53.899Z,15.26
2022-10-31T22:57:57.891Z,14.85
2022-10-31T23:03:01.256Z,14.51
2022-10-31T23:08:04.605Z,14.23
2022-10-31T23:13:27.984Z,15.23
2022-10-31T23:18:49.165Z,18.30
2022-10-31T23:23:52.764Z,18.04
2022-10-31T23:28:55.590Z,16.67
2022-10-31T23:33:58.393Z,15.90
2022-10-31T23:39:01.248Z,15.34
2022-10-31T23:44:04.613Z,14.87
2022-10-31T23:49:07.477Z,14.48
2022-10-31T23:54:10.262Z,14.18
2022-10-31T23:59:13.284Z,15.16
